Time;durP1;ratioP1;P1;durP2;ratioP2;P2;SDS_P1;SDS_P2;PMS_P1;PMS_P2;Temp;Humidity;BMP_temperature;BMP_pressure;BME280_temperature;BME280_humidity;BME280_pressure;Samples;Min_cycle;Max_cycle;Signal;HPM_P1;HPM_P2
2024/02/29 00:02:29;;;;;;;26.77;19.77;;;2.40;99.90;;;3.05;100.00;98257.50;10360813;28;20328;-68
2024/02/29 00:07:32;;;;;;;27.63;20.00;;;2.30;99.90;;;2.90;100.00;98256.97;10359997;28;20322;-68
2024/02/29 00:12:38;;;;;;;25.20;19.87;;;2.20;99.90;;;2.92;100.00;98254.59;10359986;28;20438;-68
2024/02/29 00:17:41;;;;;;;29.60;20.03;;;2.20;99.90;;;2.99;100.00;98241.78;10351706;28;20233;-69
2024/02/29 00:22:45;;;;;;;27.13;21.20;;;2.30;99.90;;;2.97;100.00;98238.22;10348502;28;20241;-68
2024/02/29 00:27:50;;;;;;;29.30;20.47;;;2.30;99.90;;;2.97;100.00;98233.16;10356331;28;20230;-69
2024/02/29 00:32:55;;;;;;;23.63;20.03;;;2.30;99.90;;;2.94;100.00;98226.19;10358705;28;20236;-69
2024/02/29 00:38:00;;;;;;;27.53;20.00;;;2.30;99.90;;;2.82;100.00;98232.66;10357712;28;20235;-70
2024/02/29 00:43:05;;;;;;;28.50;21.13;;;2.10;99.90;;;2.70;100.00;98237.44;10357974;28;20257;-69
2024/02/29 00:48:09;;;;;;;31.20;21.90;;;2.00;99.90;;;2.62;100.00;98235.84;10356282;28;20591;-68
2024/02/29 00:53:12;;;;;;;26.63;20.23;;;1.90;99.90;;;2.59;100.00;98233.03;10360529;28;20226;-69
2024/02/29 00:58:17;;;;;;;30.43;22.33;;;1.90;99.90;;;2.47;100.00;98229.38;10359574;28;20230;-71
2024/02/29 01:03:20;;;;;;;31.83;21.63;;;1.80;99.90;;;2.43;100.00;98210.56;10372483;22;20705;-65
2024/02/29 01:08:23;;;;;;;33.63;22.70;;;1.80;99.90;;;2.45;100.00;98208.16;10362083;28;20621;-64
2024/02/29 01:13:27;;;;;;;27.97;19.90;;;1.80;99.90;;;2.36;100.00;98204.78;10354273;28;20242;-66
2024/02/29 01:18:31;;;;;;;31.77;22.47;;;1.70;99.90;;;2.35;100.00;98195.44;10354459;28;20222;-66
2024/02/29 01:23:34;;;;;;;30.53;20.70;;;1.70;99.90;;;2.30;100.00;98195.00;10357252;28;20241;-65
2024/02/29 01:28:38;;;;;;;33.50;22.23;;;1.70;99.90;;;2.29;100.00;98189.81;10354602;28;20739;-66
2024/02/29 01:33:41;;;;;;;30.23;21.20;;;1.60;99.90;;;2.32;100.00;98195.13;10353950;28;20227;-65
2024/02/29 01:38:44;;;;;;;31.03;21.50;;;1.70;99.90;;;2.28;100.00;98183.00;10352711;28;20345;-65
2024/02/29 01:43:53;;;;;;;28.77;20.13;;;1.60;99.90;;;2.23;100.00;98170.84;10356036;28;20237;-66
2024/02/29 01:48:58;;;;;;;28.20;20.40;;;1.50;99.90;;;2.09;100.00;98176.22;10354562;28;20233;-65
2024/02/29 01:54:02;;;;;;;25.50;19.07;;;1.30;99.90;;;1.91;100.00;98160.22;10353849;28;20653;-65
2024/02/29 01:59:07;;;;;;;29.73;20.13;;;1.20;99.90;;;1.94;100.00;98159.63;10356321;28;20230;-66
2024/02/29 02:04:10;;;;;;;29.00;20.07;;;1.20;99.90;;;1.90;100.00;98148.38;10354608;28;20240;-63
2024/02/29 02:09:13;;;;;;;33.50;22.43;;;1.20;99.90;;;1.84;100.00;98167.09;10355107;28;20240;-66
2024/02/29 02:14:18;;;;;;;30.00;20.67;;;1.10;99.90;;;1.86;100.00;98163.06;10356575;28;20243;-64
2024/02/29 02:19:21;;;;;;;34.50;22.20;;;1.10;99.90;;;1.73;100.00;98159.38;10364392;28;20256;-65
2024/02/29 02:24:26;;;;;;;33.70;21.90;;;1.10;99.90;;;1.74;100.00;98155.22;10360832;28;20236;-65
2024/02/29 02:29:29;;;;;;;32.10;21.70;;;1.10;99.90;;;1.77;100.00;98146.34;10362397;28;20250;-64
2024/02/29 02:34:32;;;;;;;30.33;20.73;;;1.10;99.90;;;1.85;100.00;98139.50;10363723;28;20239;-65
2024/02/29 02:39:36;;;;;;;33.33;21.80;;;1.20;99.90;;;1.83;100.00;98140.97;10361965;28;20759;-65
2024/02/29 02:44:40;;;;;;;32.93;21.27;;;1.20;99.90;;;1.89;100.00;98138.16;10361982;28;20799;-65
2024/02/29 02:49:43;;;;;;;31.47;20.73;;;1.10;99.90;;;1.74;100.00;98130.91;10363032;28;20232;-65
2024/02/29 02:54:47;;;;;;;34.10;22.17;;;1.10;99.90;;;1.63;100.00;98121.47;10358997;28;20228;-65
2024/02/29 02:59:50;;;;;;;31.40;21.10;;;1.00;99.90;;;1.68;100.00;98112.69;10362883;28;20228;-65
2024/02/29 03:04:53;;;;;;;30.67;22.47;;;1.00;99.90;;;1.69;100.00;98111.06;10361494;28;20227;-65
2024/02/29 03:09:58;;;;;;;31.90;22.20;;;1.00;99.90;;;1.82;100.00;98103.94;10360176;28;20231;-65
2024/02/29 03:15:01;;;;;;;32.17;21.33;;;1.00;99.90;;;1.73;100.00;98101.44;10362123;28;20288;-63
2024/02/29 03:20:11;;;;;;;30.30;21.23;;;0.90;99.90;;;1.57;100.00;98095.66;10360430;28;20635;-65
2024/02/29 03:25:17;;;;;;;30.40;21.80;;;0.90;99.90;;;1.55;100.00;98099.69;10359158;28;20637;-65
2024/02/29 03:30:20;;;;;;;30.63;21.63;;;0.80;99.90;;;1.59;100.00;98094.19;10360751;28;20231;-64
2024/02/29 03:35:24;;;;;;;33.53;21.50;;;0.80;99.90;;;1.33;100.00;98090.09;10361623;28;20227;-65
2024/02/29 03:40:28;;;;;;;35.80;23.73;;;0.70;99.90;;;1.18;100.00;98088.63;10360093;28;20231;-65
2024/02/29 03:45:32;;;;;;;33.23;23.17;;;0.60;99.90;;;1.07;100.00;98085.06;10359868;28;20226;-65
2024/02/29 03:50:35;;;;;;;38.80;23.10;;;0.60;99.90;;;1.16;100.00;98081.66;10360494;28;20222;-63
2024/02/29 03:55:39;;;;;;;37.93;23.93;;;0.60;99.90;;;1.26;100.00;98076.75;10357313;28;20310;-66
2024/02/29 04:00:43;;;;;;;32.77;23.30;;;0.70;99.90;;;1.26;100.00;98077.66;10356234;28;20234;-65
2024/02/29 04:05:46;;;;;;;30.97;22.30;;;0.60;99.90;;;1.28;100.00;98076.16;10358158;28;20227;-65
2024/02/29 04:10:51;;;;;;;34.93;21.90;;;0.70;99.90;;;1.30;100.00;98077.19;10356269;28;20271;-65
2024/02/29 04:15:54;;;;;;;36.67;22.93;;;0.70;99.90;;;1.32;100.00;98073.22;10358627;28;20224;-65
2024/02/29 04:20:57;;;;;;;36.70;22.57;;;0.60;99.90;;;1.36;100.00;98076.91;10357590;28;20226;-64
2024/02/29 04:26:02;;;;;;;36.57;22.63;;;0.60;99.90;;;1.27;100.00;98069.34;10355885;28;20241;-65
2024/02/29 04:31:05;;;;;;;36.67;22.57;;;0.50;99.90;;;1.28;100.00;98070.25;10357094;28;20247;-64
2024/02/29 04:36:09;;;;;;;31.87;22.37;;;0.50;99.90;;;1.20;100.00;98064.47;10355631;28;20619;-65
2024/02/29 04:41:14;;;;;;;36.53;23.40;;;0.50;99.90;;;1.11;100.00;98066.97;10352448;28;20237;-64
2024/02/29 04:46:17;;;;;;;36.00;21.93;;;0.40;99.90;;;1.09;100.00;98060.06;10355042;28;20227;-64
2024/02/29 04:51:20;;;;;;;34.70;21.97;;;0.40;99.90;;;0.99;100.00;98052.34;10357475;28;20230;-65
2024/02/29 04:56:24;;;;;;;37.13;22.83;;;0.30;99.90;;;0.94;100.00;98045.97;10359457;28;20236;-64
2024/02/29 05:01:28;;;;;;;37.70;23.03;;;0.40;99.90;;;0.86;100.00;98051.16;10352179;28;20611;-64
2024/02/29 05:06:32;;;;;;;36.60;22.20;;;0.30;99.90;;;0.86;100.00;98048.66;10352582;28;20229;-65
2024/02/29 05:11:36;;;;;;;35.90;23.93;;;0.30;99.90;;;0.87;100.00;98050.41;10356773;28;20237;-64
2024/02/29 05:16:42;;;;;;;37.23;23.30;;;0.30;99.90;;;0.89;100.00;98048.94;10356476;28;20230;-64
2024/02/29 05:21:45;;;;;;;35.80;22.80;;;0.30;99.90;;;0.89;100.00;98050.56;10352209;28;20240;-64
2024/02/29 05:26:50;;;;;;;38.00;23.33;;;0.30;99.90;;;0.76;100.00;98035.91;10352950;28;20230;-64
2024/02/29 05:31:54;;;;;;;34.23;23.20;;;0.20;99.90;;;0.87;100.00;98031.91;10354696;28;20703;-64
2024/02/29 05:36:57;;;;;;;35.83;23.37;;;0.30;99.90;;;0.90;100.00;98024.66;10361125;28;20734;-64
2024/02/29 05:42:02;;;;;;;39.57;24.47;;;0.30;99.90;;;0.91;100.00;98026.44;10361298;28;20694;-63
2024/02/29 05:47:07;;;;;;;38.03;25.23;;;0.30;99.90;;;0.94;100.00;98026.72;10359409;28;20231;-64
2024/02/29 05:52:11;;;;;;;38.30;24.63;;;0.40;99.90;;;1.02;100.00;98027.47;10358234;28;20262;-64
2024/02/29 05:57:15;;;;;;;40.80;26.70;;;0.40;99.90;;;1.08;100.00;98023.91;10362197;28;20707;-63
2024/02/29 06:02:18;;;;;;;35.13;22.83;;;0.50;99.90;;;1.00;100.00;98012.25;10361104;28;20630;-64
2024/02/29 06:07:21;;;;;;;37.10;23.67;;;0.40;99.90;;;0.98;100.00;98011.19;10361728;28;20280;-63
2024/02/29 06:12:26;;;;;;;38.00;24.80;;;0.40;99.90;;;0.95;100.00;98002.47;10361673;28;20640;-63
2024/02/29 06:17:29;;;;;;;36.80;24.50;;;0.40;99.90;;;1.08;100.00;98000.38;10357273;28;20805;-63
2024/02/29 06:22:33;;;;;;;36.00;23.23;;;0.50;99.90;;;1.01;100.00;97998.03;10361251;28;20254;-62
2024/02/29 06:27:39;;;;;;;40.30;25.60;;;0.40;99.90;;;1.01;100.00;97998.03;10362225;28;20223;-64
2024/02/29 06:32:43;;;;;;;38.90;23.90;;;0.50;99.90;;;1.12;100.00;97987.34;10365200;28;20839;-62
2024/02/29 06:37:47;;;;;;;39.27;24.37;;;0.50;99.90;;;1.22;100.00;97984.94;10373540;28;20234;-63
2024/02/29 06:42:51;;;;;;;37.87;24.17;;;0.60;99.90;;;1.34;100.00;97993.69;10362880;28;20435;-63
2024/02/29 06:47:55;;;;;;;38.87;25.27;;;0.70;99.90;;;1.42;100.00;97993.50;10360004;28;20250;-63
2024/02/29 06:52:58;;;;;;;39.63;26.57;;;0.80;99.90;;;1.57;100.00;97979.81;10351086;28;20649;-64
2024/02/29 06:58:03;;;;;;;38.00;24.93;;;1.00;99.90;;;1.86;100.00;97969.94;10346933;28;20232;-64
2024/02/29 07:03:06;;;;;;;39.77;27.50;;;1.20;99.90;;;2.08;100.00;97971.88;10359676;28;20576;-63
2024/02/29 07:08:13;;;;;;;42.57;25.83;;;1.30;99.90;;;2.32;100.00;97970.69;10351291;28;20225;-64
2024/02/29 07:13:17;;;;;;;37.83;26.50;;;1.70;99.90;;;2.69;100.00;97963.16;10351248;28;20234;-63
2024/02/29 07:18:21;;;;;;;38.33;25.87;;;2.10;99.90;;;3.09;98.96;97950.59;10396895;22;20311;-66
2024/02/29 07:23:25;;;;;;;37.67;25.53;;;2.40;99.90;;;3.43;98.28;97936.72;10397557;28;20317;-67
2024/02/29 07:28:29;;;;;;;38.43;24.73;;;2.80;99.90;;;3.84;96.93;97934.31;10397534;28;20316;-67
2024/02/29 07:33:34;;;;;;;39.17;25.40;;;3.10;99.90;;;3.87;93.81;97934.56;10406586;28;20221;-67
2024/02/29 07:38:38;;;;;;;35.17;24.93;;;3.20;99.90;;;3.99;93.39;97925.47;10393730;28;20232;-67
2024/02/29 07:43:42;;;;;;;33.80;25.23;;;3.20;99.90;;;4.26;94.94;97937.00;10408331;28;20224;-67
2024/02/29 07:48:47;;;;;;;33.63;24.80;;;3.60;99.90;;;4.74;92.34;97936.66;10407652;28;20237;-67
2024/02/29 07:53:51;;;;;;;34.97;24.40;;;4.00;99.90;;;4.66;90.85;97924.16;10403134;28;20246;-67
2024/02/29 07:58:55;;;;;;;32.27;23.43;;;3.90;99.90;;;4.90;91.33;97922.72;10391275;28;20234;-69
2024/02/29 08:03:59;;;;;;;37.53;27.70;;;4.10;99.90;;;4.63;92.25;97922.25;10397931;28;20239;-67
2024/02/29 08:09:04;;;;;;;36.70;25.23;;;3.90;99.90;;;4.78;91.46;97909.97;10391764;28;20222;-67
2024/02/29 08:14:13;;;;;;;38.43;28.10;;;4.10;99.90;;;4.97;91.52;97907.22;10400592;28;20308;-68
2024/02/29 08:19:20;;;;;;;37.10;24.60;;;4.20;99.90;;;5.21;89.69;97893.09;10397539;28;20311;-67
2024/02/29 08:24:23;;;;;;;37.50;24.63;;;4.60;99.90;;;5.47;92.72;97892.56;10398965;28;20240;-69
2024/02/29 08:29:27;;;;;;;35.00;24.10;;;4.90;99.90;;;6.09;89.10;97887.97;10397839;28;20236;-67
2024/02/29 08:34:32;;;;;;;38.97;25.77;;;5.50;99.90;;;6.50;88.46;97880.00;10396624;28;20721;-67
2024/02/29 08:39:35;;;;;;;36.53;25.33;;;5.80;99.90;;;6.62;88.27;97875.81;10396172;28;20790;-67
2024/02/29 08:44:43;;;;;;;35.07;24.53;;;6.00;99.90;;;7.15;86.38;97868.59;10396660;28;20288;-67
2024/02/29 08:49:46;;;;;;;36.13;26.03;;;6.40;99.90;;;7.48;84.82;97859.00;10401453;28;20317;-67
2024/02/29 08:54:50;;;;;;;32.03;25.00;;;6.90;99.90;;;7.88;84.19;97856.59;10395664;28;20229;-66
2024/02/29 08:59:54;;;;;;;38.77;25.87;;;7.20;99.90;;;8.25;81.99;97859.06;10397164;28;20232;-67
2024/02/29 09:04:57;;;;;;;33.90;24.93;;;7.60;99.90;;;8.53;80.92;97855.03;10403401;28;20229;-67
2024/02/29 09:10:01;;;;;;;34.20;24.70;;;7.90;99.90;;;8.85;80.79;97846.00;10389371;28;20291;-68
2024/02/29 09:15:07;;;;;;;36.23;25.90;;;8.20;99.90;;;9.08;79.92;97833.81;10394665;28;20615;-68
2024/02/29 09:20:11;;;;;;;37.50;26.67;;;8.50;99.90;;;9.68;76.91;97830.69;10393045;28;20870;-67
2024/02/29 09:25:14;;;;;;;35.60;25.37;;;9.00;99.90;;;9.87;77.56;97825.91;10395317;28;20637;-67
2024/02/29 09:30:19;;;;;;;33.53;26.00;;;9.40;99.90;;;10.16;75.62;97808.84;10397835;28;20250;-70
2024/02/29 09:35:23;;;;;;;38.90;28.88;;;9.60;99.90;;;10.42;74.83;97799.28;10397501;28;20257;-67
2024/02/29 09:40:26;;;;;;;40.33;29.85;;;9.80;99.90;;;10.02;76.24;97802.06;10390982;28;20230;-67
2024/02/29 09:45:41;;;;;;;38.38;28.55;;;9.50;99.90;;;10.57;75.62;97789.91;10395385;28;20756;-68
2024/02/29 09:50:45;;;;;;;44.70;31.30;;;9.90;99.90;;;10.49;74.46;97776.69;10399336;28;20271;-67
2024/02/29 09:55:48;;;;;;;41.80;29.08;;;9.90;99.90;;;10.63;74.73;97767.22;10403801;28;20316;-67
2024/02/29 10:00:53;;;;;;;41.38;29.33;;;10.10;99.90;;;10.73;74.79;97766.94;10387024;28;20239;-68
2024/02/29 10:05:59;;;;;;;42.92;29.77;;;10.20;99.90;;;10.75;73.96;97757.66;10396025;28;20233;-67
2024/02/29 10:11:02;;;;;;;42.92;29.52;;;10.30;99.90;;;10.64;74.81;97740.88;10400551;28;20237;-68
2024/02/29 10:16:09;;;;;;;37.85;27.23;;;10.10;99.90;;;10.97;71.23;97736.69;10388956;28;20780;-69
2024/02/29 10:21:14;;;;;;;36.33;25.67;;;10.40;99.90;;;10.88;72.32;97730.22;10398942;28;20246;-69
2024/02/29 10:26:19;;;;;;;35.33;25.55;;;10.40;99.90;;;11.50;69.06;97719.81;10391821;28;20226;-69
2024/02/29 10:31:23;;;;;;;32.58;23.73;;;11.00;99.90;;;11.35;68.61;97713.94;10392574;28;20681;-67
2024/02/29 10:36:27;;;;;;;30.35;22.75;;;10.90;99.90;;;11.66;67.33;97709.56;10395095;28;20226;-68
2024/02/29 10:41:32;;;;;;;32.60;23.58;;;11.20;99.90;;;11.90;69.97;97701.38;10402240;28;20236;-67
2024/02/29 10:46:38;;;;;;;31.48;23.35;;;11.40;99.90;;;12.30;63.76;97696.47;10399269;28;21189;-68
2024/02/29 10:51:44;;;;;;;26.60;20.30;;;11.70;99.90;;;11.89;64.67;97684.25;10402527;28;20234;-69
2024/02/29 10:56:49;;;;;;;24.85;19.23;;;11.30;99.90;;;12.16;63.31;97683.03;10404006;28;20236;-68
2024/02/29 11:01:58;;;;;;;25.10;19.20;;;11.40;99.90;;;12.05;64.77;97676.53;10396060;28;20241;-68
2024/02/29 11:07:03;;;;;;;24.15;19.05;;;11.50;99.90;;;12.12;62.08;97664.88;10404787;28;20233;-69
2024/02/29 11:12:09;;;;;;;22.52;17.70;;;11.40;99.90;;;11.87;63.94;97644.88;10398949;28;20233;-67
2024/02/29 11:17:15;;;;;;;21.42;17.85;;;11.20;99.90;;;11.84;61.79;97639.56;10409178;28;20250;-68
2024/02/29 11:22:19;;;;;;;22.98;17.95;;;11.30;99.90;;;12.51;60.79;97636.81;10402084;28;20320;-69
2024/02/29 11:27:30;;;;;;;24.92;17.85;;;11.90;99.90;;;12.47;59.42;97628.06;10402176;28;20221;-67
2024/02/29 11:32:35;;;;;;;24.23;17.95;;;11.80;99.90;;;12.50;60.22;97604.25;10404842;28;20229;-68
2024/02/29 11:37:40;;;;;;;20.42;16.70;;;11.90;99.90;;;12.30;60.92;97603.34;10405647;28;20317;-68
2024/02/29 11:42:43;;;;;;;22.85;18.00;;;11.60;99.90;;;12.22;59.95;97602.13;10402685;28;20246;-68
2024/02/29 11:47:49;;;;;;;21.90;16.83;;;11.50;99.90;;;12.43;60.99;97577.47;10406605;28;20317;-68
2024/02/29 11:52:56;;;;;;;25.27;18.92;;;11.70;99.90;;;12.81;58.10;97578.31;10404164;28;20853;-67
2024/02/29 11:58:00;;;;;;;22.08;17.30;;;12.20;99.90;;;12.75;59.33;97565.22;10404645;28;20652;-68
2024/02/29 12:03:06;;;;;;;19.05;16.20;;;12.10;99.90;;;12.74;59.36;97548.94;10403193;28;20280;-68
2024/02/29 12:08:10;;;;;;;19.77;15.93;;;12.10;99.90;;;12.89;57.56;97543.59;10399542;28;20284;-68
2024/02/29 12:13:14;;;;;;;21.13;16.45;;;12.10;99.90;;;12.93;59.21;97527.50;10400122;28;20312;-68
2024/02/29 12:18:19;;;;;;;21.48;16.55;;;12.30;99.90;;;12.89;58.92;97523.09;10397916;28;20312;-68
2024/02/29 12:23:23;;;;;;;21.27;16.88;;;12.10;99.90;;;12.86;57.86;97510.13;10403119;28;20673;-68
2024/02/29 12:28:26;;;;;;;20.13;16.52;;;12.10;99.90;;;12.77;58.90;97502.91;10400815;28;20253;-68
2024/02/29 12:33:30;;;;;;;18.38;15.60;;;12.10;99.90;;;12.89;57.42;97492.31;10399442;28;20792;-68
2024/02/29 12:38:35;;;;;;;21.15;17.48;;;12.10;99.90;;;12.64;56.83;97495.50;10402956;28;20218;-69
2024/02/29 12:43:39;;;;;;;20.73;17.17;;;11.90;99.90;;;12.43;60.35;97480.09;10401763;28;20779;-69
2024/02/29 12:48:44;;;;;;;19.63;15.32;;;11.80;99.90;;;12.82;58.41;97474.91;10399993;28;20667;-68
2024/02/29 12:53:47;;;;;;;17.58;15.45;;;12.10;99.90;;;12.59;58.58;97472.25;10402894;28;20240;-69
2024/02/29 12:58:50;;;;;;;16.38;14.57;;;11.80;99.90;;;12.98;57.28;97454.19;10398753;28;20230;-68
2024/02/29 13:03:54;;;;;;;17.65;15.05;;;12.30;99.90;;;12.99;55.74;97462.75;10401754;28;20714;-69
2024/02/29 13:08:57;;;;;;;16.77;14.25;;;12.30;99.90;;;12.95;56.78;97456.63;10398549;28;20234;-69
2024/02/29 13:14:00;;;;;;;20.13;16.15;;;12.50;99.90;;;12.54;57.43;97442.97;10407244;28;20311;-68
2024/02/29 13:19:06;;;;;;;19.42;15.57;;;12.10;99.90;;;12.46;59.31;97441.75;10402406;28;20237;-69
2024/02/29 13:24:09;;;;;;;19.83;16.20;;;11.90;99.90;;;12.35;59.49;97432.75;10398937;28;20233;-67
2024/02/29 13:29:12;;;;;;;18.98;15.30;;;11.80;99.90;;;12.59;59.39;97426.09;10401120;28;20319;-70
2024/02/29 13:34:17;;;;;;;18.90;15.57;;;12.10;99.90;;;12.66;58.89;97405.84;10398795;28;20244;-68
2024/02/29 13:39:20;;;;;;;19.58;15.98;;;12.10;99.90;;;12.68;59.84;97399.09;10398892;28;20233;-68
2024/02/29 13:44:23;;;;;;;19.25;16.08;;;12.10;99.90;;;12.61;58.86;97393.69;10402656;28;20309;-68
2024/02/29 13:49:29;;;;;;;18.48;15.70;;;12.10;99.90;;;12.38;59.62;97381.59;10404259;28;20322;-68
2024/02/29 13:54:32;;;;;;;20.75;16.20;;;11.90;99.90;;;12.46;60.14;97375.13;10395221;28;20221;-69
2024/02/29 13:59:35;;;;;;;21.55;16.63;;;11.90;99.90;;;12.64;59.79;97364.75;10396704;28;20284;-70
2024/02/29 14:04:40;;;;;;;21.77;16.90;;;12.10;99.90;;;12.59;59.94;97356.88;10402324;28;20251;-69
2024/02/29 14:09:43;;;;;;;20.90;17.40;;;12.10;99.90;;;12.40;59.56;97351.81;10400264;28;20226;-68
2024/02/29 14:14:46;;;;;;;22.38;16.58;;;12.00;99.90;;;12.29;60.76;97337.66;10409388;28;20675;-69
2024/02/29 14:19:50;;;;;;;21.52;17.35;;;11.80;99.90;;;12.38;59.91;97338.03;10409762;28;20324;-68
2024/02/29 14:24:53;;;;;;;22.70;17.77;;;11.90;99.90;;;12.32;60.96;97332.66;10410251;28;20234;-68
2024/02/29 14:29:56;;;;;;;21.30;17.25;;;11.80;99.90;;;12.35;61.47;97318.28;10408682;28;20230;-68
2024/02/29 14:35:04;;;;;;;23.83;17.92;;;11.80;99.90;;;12.47;59.94;97317.91;10408923;28;20229;-68
2024/02/29 14:40:10;;;;;;;21.52;17.60;;;12.00;99.90;;;12.09;61.95;97303.53;10409134;28;20312;-68
2024/02/29 14:45:14;;;;;;;24.42;18.33;;;11.80;99.90;;;12.14;61.93;97317.41;10404626;28;20303;-67
2024/02/29 14:50:19;;;;;;;26.67;19.50;;;11.80;99.90;;;12.12;62.31;97299.38;10409420;28;20320;-68
2024/02/29 14:55:22;;;;;;;24.77;19.48;;;11.80;99.90;;;11.98;63.34;97290.25;10408889;28;20312;-69
2024/02/29 15:00:27;;;;;;;24.42;19.38;;;11.60;99.90;;;11.88;63.47;97289.00;10409614;28;20248;-68
2024/02/29 15:05:32;;;;;;;25.02;19.42;;;11.50;99.90;;;11.84;64.34;97286.19;10407872;28;20226;-68
2024/02/29 15:10:35;;;;;;;25.95;18.88;;;11.40;99.90;;;11.88;63.55;97278.75;10407679;28;20708;-68
2024/02/29 15:15:38;;;;;;;25.58;19.30;;;11.30;99.90;;;11.55;66.38;97273.03;10408237;28;20218;-68
2024/02/29 15:20:43;;;;;;;22.77;18.20;;;10.80;99.90;;;11.54;64.83;97265.28;10402997;28;20965;-68
2024/02/29 15:25:46;;;;;;;24.75;18.92;;;11.10;99.90;;;11.38;65.04;97268.84;10402503;28;20245;-68
2024/02/29 15:30:50;;;;;;;23.75;18.88;;;10.90;99.90;;;11.20;65.46;97262.09;10406910;28;20632;-68
2024/02/29 15:35:54;;;;;;;27.55;17.60;;;10.80;99.90;;;11.10;65.75;97257.38;10402835;28;20229;-68
2024/02/29 15:40:58;;;;;;;21.42;17.35;;;10.90;99.90;;;11.11;65.95;97245.50;10405065;28;20518;-68
2024/02/29 15:46:01;;;;;;;24.73;17.95;;;10.90;99.90;;;10.85;67.77;97239.19;10405335;28;20287;-67
2024/02/29 15:51:06;;;;;;;22.23;17.35;;;10.50;99.90;;;10.82;67.83;97238.25;10403547;28;20225;-67
2024/02/29 15:56:09;;;;;;;22.23;17.63;;;10.40;99.90;;;10.77;69.59;97229.47;10402737;28;20230;-67
2024/02/29 16:01:13;;;;;;;23.33;16.88;;;10.30;99.90;;;10.73;69.75;97235.25;10395167;28;20316;-68
2024/02/29 16:06:17;;;;;;;22.25;16.83;;;10.10;99.90;;;10.73;69.37;97232.72;10403854;28;20257;-68
2024/02/29 16:11:22;;;;;;;23.63;18.17;;;10.10;99.90;;;10.69;70.00;97227.38;10395036;28;20228;-67
2024/02/29 16:16:25;;;;;;;22.98;17.88;;;10.10;99.90;;;10.51;70.22;97224.84;10400735;28;20230;-67
2024/02/29 16:21:30;;;;;;;23.33;17.85;;;9.90;99.90;;;10.33;70.21;97223.19;10400929;28;20601;-67
2024/02/29 16:26:33;;;;;;;23.75;17.55;;;9.80;99.90;;;10.32;70.49;97213.75;10396665;28;20253;-67
2024/02/29 16:31:36;;;;;;;21.92;16.98;;;9.70;99.90;;;10.22;70.91;97218.34;10394025;28;20248;-67
2024/02/29 16:36:41;;;;;;;25.52;17.13;;;9.60;99.90;;;10.18;70.85;97212.19;10404026;28;21057;-67
2024/02/29 16:41:44;;;;;;;24.63;17.63;;;9.50;99.90;;;10.18;70.81;97209.63;10400623;28;20233;-68
2024/02/29 16:46:48;;;;;;;23.83;19.30;;;9.40;99.90;;;9.80;72.45;97213.75;10396096;28;20236;-67
2024/02/29 16:51:52;;;;;;;26.58;19.50;;;9.10;99.90;;;9.62;72.89;97202.66;10399546;28;20592;-68
2024/02/29 16:56:56;;;;;;;27.55;20.42;;;8.90;99.90;;;9.64;73.51;97201.03;10391222;28;20740;-68
2024/02/29 17:01:59;;;;;;;24.05;18.83;;;8.90;99.90;;;9.38;74.48;97204.81;10391103;28;20435;-67
2024/02/29 17:07:05;;;;;;;26.90;19.77;;;8.60;99.90;;;9.23;75.12;97200.69;10388120;28;20233;-67
2024/02/29 17:12:10;;;;;;;28.40;20.83;;;8.60;99.90;;;9.14;76.28;97204.44;10391025;28;20616;-68
2024/02/29 17:17:13;;;;;;;29.10;20.03;;;8.50;99.90;;;8.93;77.40;97206.75;10391413;28;20729;-67
2024/02/29 17:22:18;;;;;;;28.37;20.60;;;8.30;99.90;;;8.82;79.19;97206.19;10392385;28;20241;-68
2024/02/29 17:27:23;;;;;;;30.00;21.67;;;8.00;99.90;;;8.72;78.60;97201.38;10382180;28;20226;-69
2024/02/29 17:32:26;;;;;;;31.50;22.03;;;8.10;99.90;;;8.61;80.04;97205.03;10380828;28;20705;-71
2024/02/29 17:37:31;;;;;;;31.57;22.23;;;7.90;99.90;;;8.67;79.29;97195.16;10381959;28;20332;-69
2024/02/29 17:42:34;;;;;;;30.73;21.90;;;7.90;99.90;;;8.53;80.33;97180.03;10379757;28;20228;-69
2024/02/29 17:47:40;;;;;;;33.63;24.27;;;7.80;99.90;;;8.13;82.58;97182.94;10385732;28;20319;-70
2024/02/29 17:52:45;;;;;;;33.87;23.93;;;7.50;99.90;;;7.96;83.20;97178.56;10385285;28;20226;-69
2024/02/29 17:57:48;;;;;;;37.63;25.93;;;7.30;99.90;;;7.80;83.82;97171.72;10383899;28;20226;-69
2024/02/29 18:02:51;;;;;;;38.27;26.30;;;7.10;99.90;;;7.67;84.57;97170.16;10382572;28;20222;-69
2024/02/29 18:07:56;;;;;;;36.97;26.43;;;7.00;99.90;;;7.65;84.88;97164.13;10380450;28;20326;-68
2024/02/29 18:13:05;;;;;;;35.73;24.93;;;6.90;99.90;;;7.51;85.76;97161.59;10381004;28;20372;-69
2024/02/29 18:18:09;;;;;;;32.77;23.20;;;6.90;99.90;;;7.50;85.84;97160.72;10381611;28;20425;-67
2024/02/29 18:23:14;;;;;;;39.10;25.10;;;6.90;99.90;;;7.28;87.03;97134.84;10381429;28;20524;-67
2024/02/29 18:28:17;;;;;;;37.37;25.30;;;6.70;99.90;;;7.29;87.53;97139.13;10374321;28;20233;-67
2024/02/29 18:33:21;;;;;;;37.13;24.27;;;6.70;99.90;;;7.28;87.69;97128.09;10376173;28;20706;-70
2024/02/29 18:38:27;;;;;;;37.67;23.67;;;6.60;99.90;;;7.07;88.37;97122.66;10374998;28;20230;-68
2024/02/29 18:43:30;;;;;;;31.37;23.17;;;6.50;99.90;;;7.11;88.35;97116.94;10374715;28;20733;-70
2024/02/29 18:48:35;;;;;;;32.60;23.27;;;6.50;99.90;;;7.08;87.90;97119.31;10374938;28;20609;-69
2024/02/29 18:53:40;;;;;;;36.60;24.80;;;6.40;99.90;;;6.94;88.78;97105.78;10379983;28;20241;-68
2024/02/29 18:58:44;;;;;;;36.30;24.97;;;6.30;99.90;;;6.89;89.41;97101.22;10377807;28;20229;-69
2024/02/29 19:03:48;;;;;;;39.77;26.60;;;6.20;99.90;;;6.67;90.03;97099.09;10386111;28;20709;-68
2024/02/29 19:08:53;;;;;;;39.10;26.13;;;6.10;99.90;;;6.69;90.38;97098.38;10387701;28;20230;-68
2024/02/29 19:13:56;;;;;;;32.17;24.10;;;6.00;99.90;;;6.59;89.98;97091.03;10387206;28;20236;-68
2024/02/29 19:19:00;;;;;;;35.20;24.10;;;5.90;99.90;;;6.50;91.04;97095.56;10389813;28;20229;-67
2024/02/29 19:24:07;;;;;;;32.80;24.50;;;5.90;99.90;;;6.43;91.85;97096.81;10388289;28;20236;-68
2024/02/29 19:29:11;;;;;;;33.50;23.13;;;5.80;99.90;;;6.31;91.93;97079.19;10389836;28;20230;-68
2024/02/29 19:34:15;;;;;;;39.50;25.77;;;5.60;99.90;;;6.16;92.87;97068.13;10385092;28;20736;-67
2024/02/29 19:39:19;;;;;;;37.03;24.77;;;5.50;99.90;;;6.09;92.79;97065.97;10381917;28;20240;-68
2024/02/29 19:44:22;;;;;;;34.00;23.07;;;5.30;99.90;;;6.07;92.27;97067.56;10383028;28;20265;-67
2024/02/29 19:49:26;;;;;;;34.97;22.33;;;5.30;99.90;;;5.98;92.90;97065.34;10376494;28;20233;-68
2024/02/29 19:54:30;;;;;;;30.33;21.70;;;5.20;99.90;;;5.80;93.29;97069.22;10376842;28;20501;-68
2024/02/29 19:59:34;;;;;;;37.93;26.10;;;5.10;99.90;;;5.73;93.67;97067.97;10376904;28;20863;-67
2024/02/29 20:04:38;;;;;;;34.67;25.70;;;5.10;99.90;;;5.65;94.57;97062.41;10374305;28;20233;-68
2024/02/29 20:09:47;;;;;;;46.43;31.80;;;5.00;99.90;;;5.58;95.48;97059.38;10377827;28;20222;-68
2024/02/29 20:14:52;;;;;;;48.97;34.03;;;4.90;99.90;;;5.58;95.11;97078.03;10375540;28;20231;-69
2024/02/29 20:19:55;;;;;;;37.60;26.03;;;4.90;99.90;;;5.50;95.60;97070.72;10375105;28;20221;-68
2024/02/29 20:25:00;;;;;;;33.17;24.07;;;4.70;99.90;;;5.45;95.79;97083.09;10381731;28;20232;-68
2024/02/29 20:30:04;;;;;;;31.50;22.50;;;4.70;99.90;;;5.37;95.79;97069.94;10382216;28;20232;-68
2024/02/29 20:35:08;;;;;;;31.97;22.87;;;4.60;99.90;;;5.24;95.49;97075.00;10381113;28;20233;-68
2024/02/29 20:40:14;;;;;;;32.40;23.60;;;4.40;99.90;;;5.15;95.91;97076.91;10381008;28;20315;-68
2024/02/29 20:45:18;;;;;;;30.37;21.23;;;4.30;99.90;;;4.95;96.48;97074.00;10377702;28;20721;-68
2024/02/29 20:50:22;;;;;;;31.03;21.13;;;4.20;99.90;;;4.83;96.43;97065.56;10374667;28;20852;-68